This is the latest recevied weather packets stored in our database for station/object IZ5MJO-13. If no packets are shown the sender has not sent any weather packets the latest 10 day(s).
| Time | Temp. | Humidity | Pressure | Rain* | Wind** | Luminosity | Snow |
|---|---|---|---|---|---|---|---|
| 1787645987 | 20.56° C | 64% | 1001.6 hPa | - | - | - | - |
| 1787645087 | 20.56° C | 67% | 1001.4 hPa | - | - | - | - |
| 1787644186 | 21.67° C | 63% | 1001.8 hPa | - | - | - | - |
| 1787643286 | 21.11° C | 65% | 1001.9 hPa | - | - | - | - |
| 1787642385 | 21.11° C | 64% | 1001.8 hPa | - | - | - | - |
| 1787641485 | 21.11° C | 64% | 1001.8 hPa | - | - | - | - |
| 1787640585 | 20.56° C | 67% | 1001.7 hPa | - | - | - | - |
| 1787639685 | 20° C | 65% | 1001.6 hPa | - | - | - | - |
| 1787638784 | 18.89° C | 65% | 1001.7 hPa | - | - | - | - |
| 1787637884 | 17.78° C | 65% | 1001.6 hPa | - | - | - | - |
| 1787618997 | 20° C | 54% | 1005.5 hPa | - | - | - | - |
| 1787618187 | 20° C | 46% | 1004.7 hPa | - | - | - | - |
| 1787618097 | 20° C | 46% | 1004.7 hPa | - | - | - | - |
| 1787618059 | 21.11° C | 42% | 1004.7 hPa | - | - | - | - |
| 1787618052 | 21.67° C | 39% | 1003.8 hPa | - | - | - | - |
| 1787618045 | 22.78° C | 39% | 1004.4 hPa | - | - | - | - |
| 1787618038 | 23.33° C | 42% | 1002.4 hPa | - | - | - | - |
| 1787618031 | 24.44° C | 35% | 1003.7 hPa | - | - | - | - |
| 1787618024 | 24.44° C | 33% | 1003.5 hPa | - | - | - | - |
| 1787618017 | 25.56° C | 32% | 1002.2 hPa | - | - | - | - |
| 1787618010 | 25.56° C | 31% | 1002 hPa | - | - | - | - |
| 1787618003 | 25° C | 32% | 1002.2 hPa | - | - | - | - |
| 1787617996 | 25.56° C | 30% | 1002.1 hPa | - | - | - | - |
| 1787617989 | 25.56° C | 29% | 1002.2 hPa | - | - | - | - |
| 1787617982 | 25.56° C | 30% | 1002 hPa | - | - | - | - |
* Rain since midnight (hover to see other rain measurements)
** Current wind speed in m/s (hover to see current wind gust speed)